createdAt,value
2023-02-18T00:00:17.182Z,12.00
2023-02-18T00:02:46.222Z,11.92
2023-02-18T00:05:14.432Z,12.05
2023-02-18T00:07:42.932Z,11.94
2023-02-18T00:10:14.184Z,11.98
2023-02-18T00:12:42.793Z,12.00
2023-02-18T00:15:12.061Z,11.90
2023-02-18T00:17:39.832Z,11.80
2023-02-18T00:20:08.625Z,11.91
2023-02-18T00:22:36.805Z,12.04
2023-02-18T00:25:04.756Z,12.04
2023-02-18T00:27:32.807Z,11.95
2023-02-18T00:30:03.988Z,11.95
2023-02-18T00:32:33.563Z,11.89
2023-02-18T00:35:02.056Z,11.99
2023-02-18T00:37:30.308Z,11.93
2023-02-18T00:39:58.033Z,11.99
2023-02-18T00:42:25.715Z,11.99
2023-02-18T00:44:54.505Z,12.13
2023-02-18T00:47:22.462Z,12.06
2023-02-18T00:49:51.458Z,12.11
2023-02-18T00:52:19.124Z,12.04
2023-02-18T00:54:46.823Z,12.08
2023-02-18T00:57:14.479Z,12.06
2023-02-18T00:59:42.375Z,12.03
2023-02-18T01:02:10.183Z,12.03
2023-02-18T01:04:38.085Z,12.03
2023-02-18T01:07:07.145Z,12.14
2023-02-18T01:09:34.806Z,12.16
2023-02-18T01:12:02.500Z,11.97
2023-02-18T01:14:30.271Z,12.05
2023-02-18T01:16:58.032Z,12.14
2023-02-18T01:19:25.773Z,12.09
2023-02-18T01:21:53.513Z,12.11
2023-02-18T01:24:23.006Z,12.13
2023-02-18T01:26:50.828Z,12.22
2023-02-18T01:29:18.477Z,12.24
2023-02-18T01:31:46.352Z,12.36
2023-02-18T01:34:16.231Z,12.31
2023-02-18T01:36:43.895Z,12.25
2023-02-18T01:39:11.644Z,12.30
2023-02-18T01:41:40.634Z,12.29
2023-02-18T01:44:13.694Z,12.36
2023-02-18T01:46:41.443Z,12.24
2023-02-18T01:49:11.722Z,12.14
2023-02-18T01:51:42.608Z,12.23
2023-02-18T01:54:15.405Z,12.10
2023-02-18T01:56:49.480Z,12.08
2023-02-18T01:59:22.652Z,12.27
2023-02-18T02:01:50.553Z,12.28
2023-02-18T02:04:18.886Z,12.20
2023-02-18T02:06:46.630Z,12.18
2023-02-18T02:09:17.337Z,12.24
2023-02-18T02:12:16.933Z,12.20
2023-02-18T02:15:03.096Z,12.15
2023-02-18T02:17:39.013Z,12.25
2023-02-18T02:21:03.934Z,12.26
2023-02-18T02:24:14.978Z,12.22
2023-02-18T02:27:06.848Z,12.16
2023-02-18T02:30:15.522Z,12.23
2023-02-18T02:33:09.179Z,12.28
2023-02-18T02:35:41.097Z,12.28
2023-02-18T02:38:15.472Z,12.11
2023-02-18T02:40:48.218Z,12.25
2023-02-18T02:43:22.484Z,12.37
2023-02-18T02:45:56.904Z,12.35
2023-02-18T02:48:34.024Z,12.33
2023-02-18T02:51:10.325Z,12.27
2023-02-18T02:53:41.079Z,12.36
2023-02-18T02:56:14.500Z,12.35
2023-02-18T02:58:42.804Z,12.39
2023-02-18T03:01:24.676Z,12.29
2023-02-18T03:04:20.409Z,12.29
2023-02-18T03:07:02.979Z,12.17
2023-02-18T03:09:39.790Z,12.23
2023-02-18T03:12:17.711Z,12.19
2023-02-18T03:14:55.139Z,12.27
2023-02-18T03:17:26.538Z,12.15
2023-02-18T03:19:58.022Z,12.18
2023-02-18T03:22:31.924Z,12.19
2023-02-18T03:25:03.925Z,12.20
2023-02-18T03:27:35.978Z,12.27
2023-02-18T03:30:08.563Z,11.98
2023-02-18T03:32:37.006Z,12.23
2023-02-18T03:35:09.534Z,12.20
2023-02-18T03:37:43.869Z,12.28
2023-02-18T03:40:12.827Z,12.28
2023-02-18T03:42:40.474Z,12.30
2023-02-18T03:45:08.955Z,12.25
2023-02-18T03:47:37.458Z,12.29
2023-02-18T03:50:05.819Z,12.31
2023-02-18T03:52:36.465Z,12.32
2023-02-18T03:55:06.439Z,12.24
2023-02-18T03:57:34.307Z,12.16
2023-02-18T04:00:02.156Z,12.23
2023-02-18T04:02:41.105Z,12.13
2023-02-18T04:05:09.296Z,12.04
2023-02-18T04:07:37.023Z,12.16
2023-02-18T04:10:08.348Z,12.16
2023-02-18T04:12:36.009Z,12.03
2023-02-18T04:15:03.811Z,11.99
2023-02-18T04:17:31.532Z,12.04
2023-02-18T04:19:59.237Z,12.07
2023-02-18T04:22:26.953Z,12.09
2023-02-18T04:24:54.607Z,12.12
2023-02-18T04:27:23.759Z,12.09
2023-02-18T04:29:51.706Z,12.09
2023-02-18T04:32:19.369Z,12.09
2023-02-18T04:34:47.066Z,12.05
2023-02-18T04:37:14.695Z,12.11
2023-02-18T04:39:42.557Z,11.99
2023-02-18T04:42:10.360Z,11.91
2023-02-18T04:44:39.783Z,12.09
2023-02-18T04:47:08.334Z,12.04
2023-02-18T04:49:36.212Z,12.14
2023-02-18T04:52:04.116Z,12.14
2023-02-18T04:54:31.810Z,12.12
2023-02-18T04:56:59.612Z,12.14
2023-02-18T04:59:27.251Z,12.08
2023-02-18T05:01:56.368Z,12.09
2023-02-18T05:04:24.322Z,11.93
2023-02-18T05:06:52.088Z,12.07
2023-02-18T05:09:19.779Z,12.19
2023-02-18T05:11:48.806Z,12.17
2023-02-18T05:14:16.611Z,12.24
2023-02-18T05:16:44.279Z,12.10
2023-02-18T05:19:15.204Z,11.95
2023-02-18T05:21:43.214Z,12.09
2023-02-18T05:24:11.066Z,12.14
2023-02-18T05:26:39.035Z,12.08
2023-02-18T05:29:07.049Z,12.15
2023-02-18T05:31:35.007Z,11.88
2023-02-18T05:34:02.689Z,11.96
2023-02-18T05:36:31.704Z,12.08
2023-02-18T05:38:59.358Z,11.87
2023-02-18T05:41:27.041Z,11.94
2023-02-18T05:44:12.438Z,11.92
2023-02-18T05:46:40.201Z,11.85
2023-02-18T05:49:07.852Z,12.02
2023-02-18T05:51:36.893Z,11.94
2023-02-18T05:54:05.201Z,11.92
2023-02-18T05:56:32.869Z,12.05
2023-02-18T05:59:00.543Z,12.00
2023-02-18T06:01:28.214Z,11.96
2023-02-18T06:03:55.886Z,11.97
2023-02-18T06:06:23.514Z,11.85
2023-02-18T06:08:52.483Z,12.00
2023-02-18T06:11:20.166Z,11.96
2023-02-18T06:13:51.191Z,11.80
2023-02-18T06:16:18.918Z,11.87
2023-02-18T06:18:46.638Z,11.78
2023-02-18T06:21:14.285Z,11.93
2023-02-18T06:23:42.132Z,11.88
2023-02-18T06:26:11.363Z,11.92
2023-02-18T06:28:39.126Z,11.84
2023-02-18T06:31:07.017Z,11.93
2023-02-18T06:33:34.699Z,11.98
2023-02-18T06:36:07.063Z,12.02
2023-02-18T06:38:35.767Z,11.94
2023-02-18T06:41:04.018Z,11.99
2023-02-18T06:43:33.203Z,11.95
2023-02-18T06:46:00.865Z,11.98
2023-02-18T06:48:28.619Z,11.97
2023-02-18T06:50:58.004Z,12.01
2023-02-18T06:53:25.782Z,12.04
2023-02-18T06:55:53.439Z,12.06
2023-02-18T06:58:21.145Z,11.98
2023-02-18T07:00:50.178Z,12.04
2023-02-18T07:03:17.849Z,12.16
2023-02-18T07:05:45.625Z,12.23
2023-02-18T07:08:13.614Z,12.22
2023-02-18T07:10:41.431Z,12.16
2023-02-18T07:13:09.036Z,12.21
2023-02-18T07:15:36.737Z,12.12
2023-02-18T07:18:05.919Z,12.02
2023-02-18T07:20:33.927Z,11.83
2023-02-18T07:23:01.674Z,11.89
2023-02-18T07:25:29.350Z,12.20
2023-02-18T07:27:57.002Z,12.21
2023-02-18T07:30:24.791Z,12.19
2023-02-18T07:32:52.504Z,12.41
2023-02-18T07:35:22.286Z,12.41
2023-02-18T07:37:51.187Z,12.30
2023-02-18T07:40:21.699Z,12.37
2023-02-18T07:42:49.785Z,12.48
2023-02-18T07:45:17.591Z,12.56
2023-02-18T07:47:45.451Z,12.34
2023-02-18T07:50:13.761Z,12.39
2023-02-18T07:52:42.799Z,12.49
2023-02-18T07:55:10.480Z,12.57
2023-02-18T07:57:57.201Z,12.60
2023-02-18T08:00:25.216Z,12.56
2023-02-18T08:02:52.928Z,12.47
2023-02-18T08:05:20.742Z,12.49
2023-02-18T08:07:49.777Z,12.52
2023-02-18T08:10:18.195Z,12.38
2023-02-18T08:12:45.848Z,12.36
2023-02-18T08:15:14.129Z,12.27
2023-02-18T08:17:41.725Z,12.12
2023-02-18T08:20:10.655Z,12.26
2023-02-18T08:22:38.356Z,12.34
2023-02-18T08:25:09.188Z,12.37
2023-02-18T08:27:39.593Z,12.44
2023-02-18T08:30:08.716Z,12.18
2023-02-18T08:32:36.564Z,12.44
2023-02-18T08:35:04.437Z,12.28
2023-02-18T08:37:52.949Z,12.39
2023-02-18T08:40:21.757Z,12.40
2023-02-18T08:42:49.490Z,12.37
2023-02-18T08:45:17.189Z,12.45
2023-02-18T08:48:16.817Z,12.29
2023-02-18T08:50:32.759Z,12.30
2023-02-18T08:53:03.228Z,12.41
2023-02-18T08:55:33.133Z,12.36
2023-02-18T08:58:01.166Z,12.49
2023-02-18T09:00:29.149Z,12.39
2023-02-18T09:02:56.929Z,12.53
2023-02-18T09:05:24.599Z,12.69
2023-02-18T09:07:52.245Z,12.62
2023-02-18T09:10:20.222Z,12.55
2023-02-18T09:12:49.589Z,12.58
2023-02-18T09:15:17.478Z,12.65
2023-02-18T09:17:45.169Z,12.51
2023-02-18T09:20:13.577Z,12.57
2023-02-18T09:22:41.320Z,12.68
2023-02-18T09:25:09.393Z,12.56
2023-02-18T09:27:37.103Z,12.67
2023-02-18T09:30:07.547Z,12.66
2023-02-18T09:32:35.718Z,12.53
2023-02-18T09:35:03.832Z,12.60
2023-02-18T09:37:31.734Z,12.65
2023-02-18T09:39:59.973Z,12.56
2023-02-18T09:42:33.116Z,12.57
2023-02-18T09:45:03.468Z,12.68
2023-02-18T09:47:36.933Z,12.65
2023-02-18T09:50:09.977Z,12.49
2023-02-18T09:52:39.316Z,12.65
2023-02-18T09:55:23.170Z,12.56
2023-02-18T09:57:54.293Z,12.71
2023-02-18T10:00:26.208Z,12.58
2023-02-18T10:03:00.745Z,12.54
2023-02-18T10:05:30.570Z,12.69
2023-02-18T10:08:02.951Z,12.86
2023-02-18T10:10:38.847Z,12.72
2023-02-18T10:13:13.872Z,12.77
2023-02-18T10:15:42.833Z,12.92
2023-02-18T10:18:22.705Z,13.00
2023-02-18T10:20:52.764Z,13.15
2023-02-18T10:23:22.202Z,13.21
2023-02-18T10:25:51.258Z,13.20
2023-02-18T10:28:23.852Z,13.26
2023-02-18T10:30:55.893Z,13.27
2023-02-18T10:33:34.871Z,12.81
2023-02-18T10:36:13.763Z,13.26
2023-02-18T10:38:50.731Z,13.13
2023-02-18T10:41:27.079Z,13.15
2023-02-18T10:44:04.671Z,13.01
2023-02-18T10:46:38.492Z,13.18
2023-02-18T10:49:29.071Z,13.31
2023-02-18T10:52:00.123Z,13.32
2023-02-18T10:54:48.341Z,13.34
2023-02-18T10:57:19.342Z,13.71
2023-02-18T10:59:57.512Z,13.70
2023-02-18T11:02:29.763Z,13.74
2023-02-18T11:05:01.867Z,13.79
2023-02-18T11:07:34.101Z,13.41
2023-02-18T11:10:10.493Z,13.40
2023-02-18T11:12:46.964Z,13.62
2023-02-18T11:15:20.726Z,13.99
2023-02-18T11:17:50.216Z,13.88
2023-02-18T11:20:35.582Z,13.53
2023-02-18T11:23:21.223Z,13.63
2023-02-18T11:25:58.873Z,13.50
2023-02-18T11:28:43.258Z,13.21
2023-02-18T11:31:17.313Z,13.65
2023-02-18T11:33:50.371Z,13.77
2023-02-18T11:36:24.721Z,13.80
2023-02-18T11:38:55.251Z,13.62
2023-02-18T11:41:32.210Z,13.70
2023-02-18T11:44:01.524Z,13.60
2023-02-18T11:46:29.720Z,13.65
2023-02-18T11:48:57.748Z,13.82
2023-02-18T11:51:29.403Z,13.61
2023-02-18T11:54:00.582Z,13.68
2023-02-18T11:56:30.715Z,13.70
2023-02-18T11:58:59.302Z,13.73
2023-02-18T12:01:37.297Z,13.96
2023-02-18T12:04:12.223Z,14.26
2023-02-18T12:06:50.019Z,14.22
2023-02-18T12:09:29.634Z,14.30
2023-02-18T12:12:00.411Z,14.62
2023-02-18T12:14:28.801Z,14.68
2023-02-18T12:17:27.106Z,14.87
2023-02-18T12:20:12.928Z,14.97
2023-02-18T12:22:45.958Z,14.69
2023-02-18T12:25:26.273Z,14.60
2023-02-18T12:28:09.657Z,14.71
2023-02-18T12:30:54.801Z,14.52
2023-02-18T12:33:31.461Z,14.38
2023-02-18T12:36:08.948Z,13.97
2023-02-18T12:39:09.262Z,13.93
2023-02-18T12:41:49.954Z,13.97
2023-02-18T12:44:33.143Z,13.89
2023-02-18T12:47:18.463Z,13.67
2023-02-18T12:50:15.265Z,13.83
2023-02-18T12:52:53.249Z,13.87
2023-02-18T12:55:45.364Z,13.84
2023-02-18T12:58:29.358Z,13.87
2023-02-18T13:01:26.273Z,13.55
2023-02-18T13:04:25.458Z,13.21
2023-02-18T13:07:04.679Z,13.39
2023-02-18T13:09:48.422Z,13.24
2023-02-18T13:12:26.122Z,13.41
2023-02-18T13:15:01.343Z,13.43
2023-02-18T13:17:35.053Z,13.48
2023-02-18T13:20:08.177Z,13.61
2023-02-18T13:22:36.394Z,13.73
2023-02-18T13:25:04.110Z,13.59
2023-02-18T13:27:39.868Z,13.57
2023-02-18T13:30:20.168Z,13.43
2023-02-18T13:32:58.254Z,13.34
2023-02-18T13:35:32.397Z,13.57
2023-02-18T13:38:13.631Z,13.54
2023-02-18T13:40:42.073Z,13.57
2023-02-18T13:43:29.510Z,13.56
2023-02-18T13:46:08.964Z,13.55
2023-02-18T13:48:44.339Z,13.20
2023-02-18T13:51:14.491Z,13.32
2023-02-18T13:53:44.215Z,13.32
2023-02-18T13:56:22.063Z,13.43
2023-02-18T13:58:54.982Z,13.58
2023-02-18T14:01:26.325Z,13.39
2023-02-18T14:03:57.408Z,13.57
2023-02-18T14:06:27.678Z,13.40
2023-02-18T14:09:25.733Z,13.44
2023-02-18T14:11:57.740Z,13.41
2023-02-18T14:14:38.503Z,13.38
2023-02-18T14:17:31.139Z,13.38
2023-02-18T14:20:43.873Z,13.51
2023-02-18T14:23:46.826Z,13.50
2023-02-18T14:26:26.574Z,13.39
2023-02-18T14:28:59.816Z,13.47
2023-02-18T14:31:44.686Z,13.34
2023-02-18T14:34:55.150Z,13.28
2023-02-18T14:37:38.148Z,13.23
2023-02-18T14:40:22.244Z,13.08
2023-02-18T14:43:01.612Z,13.10
2023-02-18T14:45:41.279Z,13.16
2023-02-18T14:48:26.174Z,12.93
2023-02-18T14:50:56.480Z,12.95
2023-02-18T14:53:27.108Z,12.86
2023-02-18T14:55:59.379Z,12.99
2023-02-18T14:58:32.551Z,13.00
2023-02-18T15:01:07.407Z,12.92
2023-02-18T15:03:35.194Z,13.02
2023-02-18T15:06:02.936Z,12.98
2023-02-18T15:08:38.347Z,12.89
2023-02-18T15:11:08.450Z,12.96
2023-02-18T15:13:38.039Z,12.82
2023-02-18T15:16:10.339Z,12.86
2023-02-18T15:18:41.402Z,12.92
2023-02-18T15:21:11.162Z,12.78
2023-02-18T15:23:41.760Z,12.86
2023-02-18T15:26:15.644Z,12.69
2023-02-18T15:28:52.838Z,12.77
2023-02-18T15:31:27.199Z,12.75
2023-02-18T15:33:54.968Z,12.78
2023-02-18T15:36:22.995Z,12.58
2023-02-18T15:38:50.720Z,12.44
2023-02-18T15:41:21.092Z,12.46
2023-02-18T15:43:56.177Z,12.48
2023-02-18T15:46:26.380Z,12.41
2023-02-18T15:48:56.077Z,12.53
2023-02-18T15:51:27.809Z,12.47
2023-02-18T15:53:57.831Z,12.36
2023-02-18T15:56:31.352Z,12.43
2023-02-18T15:59:19.087Z,12.26
2023-02-18T16:01:51.507Z,12.26
2023-02-18T16:04:21.053Z,12.28
2023-02-18T16:06:51.428Z,12.32
2023-02-18T16:09:23.730Z,12.27
2023-02-18T16:11:54.992Z,12.31
2023-02-18T16:14:27.448Z,12.29
2023-02-18T16:17:14.930Z,12.35
2023-02-18T16:20:03.306Z,12.18
2023-02-18T16:22:36.154Z,12.26
2023-02-18T16:25:15.336Z,12.13
2023-02-18T16:27:50.650Z,12.32
2023-02-18T16:30:20.959Z,12.31
2023-02-18T16:32:50.287Z,12.28
2023-02-18T16:35:18.203Z,12.22
2023-02-18T16:37:47.937Z,12.21
2023-02-18T16:40:24.717Z,12.11
2023-02-18T16:42:53.562Z,12.13
2023-02-18T16:45:22.115Z,12.07
2023-02-18T16:47:51.113Z,11.94
2023-02-18T16:50:21.665Z,12.05
2023-02-18T16:52:49.998Z,12.00
2023-02-18T16:55:20.111Z,11.89
2023-02-18T16:57:48.482Z,11.87
2023-02-18T17:00:18.378Z,11.98
2023-02-18T17:02:49.526Z,12.07
2023-02-18T17:05:26.852Z,12.06
2023-02-18T17:07:55.401Z,11.96
2023-02-18T17:10:23.073Z,11.84
2023-02-18T17:12:50.694Z,11.92
2023-02-18T17:15:28.162Z,12.05
2023-02-18T17:17:58.111Z,11.78
2023-02-18T17:20:28.175Z,11.82
2023-02-18T17:22:56.848Z,11.94
2023-02-18T17:25:26.671Z,11.79
2023-02-18T17:27:54.699Z,11.82
2023-02-18T17:30:22.489Z,11.79
2023-02-18T17:32:50.620Z,11.80
2023-02-18T17:35:19.944Z,11.63
2023-02-18T17:37:49.869Z,11.70
2023-02-18T17:40:20.942Z,11.63
2023-02-18T17:42:51.068Z,11.64
2023-02-18T17:45:23.022Z,11.72
2023-02-18T17:47:50.692Z,11.70
2023-02-18T17:50:18.520Z,11.64
2023-02-18T17:52:46.413Z,11.52
2023-02-18T17:55:22.495Z,11.50
2023-02-18T17:57:51.058Z,11.57
2023-02-18T18:00:21.476Z,11.59
2023-02-18T18:02:49.493Z,11.52
2023-02-18T18:05:20.993Z,11.38
2023-02-18T18:07:49.923Z,11.45
2023-02-18T18:10:21.844Z,11.58
2023-02-18T18:12:49.951Z,11.57
2023-02-18T18:15:24.252Z,11.49
2023-02-18T18:17:52.379Z,11.50
2023-02-18T18:20:20.696Z,11.53
2023-02-18T18:22:48.718Z,11.42
2023-02-18T18:25:23.928Z,11.47
2023-02-18T18:27:52.888Z,11.39
2023-02-18T18:30:23.173Z,11.33
2023-02-18T18:32:50.956Z,11.37
2023-02-18T18:35:24.848Z,11.31
2023-02-18T18:37:52.950Z,11.42
2023-02-18T18:40:23.835Z,11.09
2023-02-18T18:42:51.916Z,11.27
2023-02-18T18:45:23.025Z,11.30
2023-02-18T18:47:51.020Z,11.19
2023-02-18T18:50:19.906Z,11.33
2023-02-18T18:52:49.290Z,11.22
2023-02-18T18:55:25.508Z,11.28
2023-02-18T18:57:54.012Z,11.28
2023-02-18T19:00:23.877Z,11.24
2023-02-18T19:02:51.600Z,11.30
2023-02-18T19:05:25.865Z,11.30
2023-02-18T19:07:54.000Z,11.25
2023-02-18T19:10:23.919Z,11.26
2023-02-18T19:12:51.695Z,11.21
2023-02-18T19:15:22.391Z,11.29
2023-02-18T19:17:52.036Z,11.14
2023-02-18T19:20:21.816Z,11.21
2023-02-18T19:22:49.786Z,11.19
2023-02-18T19:25:18.066Z,11.19
2023-02-18T19:27:48.445Z,11.19
2023-02-18T19:30:18.820Z,11.16
2023-02-18T19:32:47.075Z,11.15
2023-02-18T19:35:14.724Z,11.22
2023-02-18T19:37:42.781Z,11.22
2023-02-18T19:40:13.820Z,11.20
2023-02-18T19:42:42.134Z,11.22
2023-02-18T19:45:11.801Z,11.15
2023-02-18T19:47:40.105Z,11.25
2023-02-18T19:50:09.153Z,11.11
2023-02-18T19:52:37.009Z,11.15
2023-02-18T19:55:04.977Z,11.16
2023-02-18T19:57:33.038Z,11.16
2023-02-18T20:00:00.695Z,11.16
2023-02-18T20:02:30.546Z,11.16
2023-02-18T20:05:01.500Z,11.21
2023-02-18T20:07:31.106Z,11.19
2023-02-18T20:09:58.830Z,11.17
2023-02-18T20:12:26.719Z,11.16
2023-02-18T20:14:54.546Z,11.11
2023-02-18T20:17:22.184Z,11.06
2023-02-18T20:19:51.247Z,11.17
2023-02-18T20:22:18.973Z,11.23
2023-02-18T20:24:47.878Z,11.09
2023-02-18T20:27:15.916Z,11.06
2023-02-18T20:29:44.609Z,11.07
2023-02-18T20:32:12.342Z,11.13
2023-02-18T20:34:40.031Z,11.12
2023-02-18T20:37:09.146Z,11.12
2023-02-18T20:39:36.861Z,11.05
2023-02-18T20:42:15.545Z,11.04
2023-02-18T20:44:44.048Z,11.08
2023-02-18T20:47:13.428Z,11.03
2023-02-18T20:49:41.716Z,11.02
2023-02-18T20:52:11.597Z,11.04
2023-02-18T20:54:39.726Z,10.96
2023-02-18T20:57:08.855Z,11.07
2023-02-18T20:59:36.520Z,10.97
2023-02-18T21:02:04.697Z,11.09
2023-02-18T21:04:32.835Z,10.94
2023-02-18T21:07:00.569Z,10.97
2023-02-18T21:09:29.994Z,10.98
2023-02-18T21:11:57.747Z,10.97
2023-02-18T21:14:25.965Z,11.06
2023-02-18T21:16:53.707Z,11.04
2023-02-18T21:19:24.552Z,10.85
2023-02-18T21:21:52.241Z,10.93
2023-02-18T21:24:19.930Z,10.85
2023-02-18T21:26:49.715Z,10.93
2023-02-18T21:29:17.460Z,10.82
2023-02-18T21:31:45.252Z,10.80
2023-02-18T21:34:15.456Z,10.84
2023-02-18T21:36:44.040Z,10.87
2023-02-18T21:39:12.663Z,10.92
2023-02-18T21:41:41.397Z,10.90
2023-02-18T21:44:10.799Z,10.81
2023-02-18T21:46:39.950Z,10.72
2023-02-18T21:49:09.405Z,10.72
2023-02-18T21:51:57.867Z,10.77
2023-02-18T21:54:27.494Z,10.73
2023-02-18T21:56:55.944Z,10.80
2023-02-18T21:59:27.528Z,10.81
2023-02-18T22:01:55.399Z,10.75
2023-02-18T22:04:23.826Z,10.76
2023-02-18T22:06:51.475Z,10.78
2023-02-18T22:09:19.438Z,10.74
2023-02-18T22:11:47.223Z,10.67
2023-02-18T22:14:15.898Z,10.72
2023-02-18T22:16:45.249Z,10.73
2023-02-18T22:19:14.244Z,10.55
2023-02-18T22:21:43.135Z,10.50
2023-02-18T22:24:12.787Z,10.80
2023-02-18T22:26:41.177Z,10.63
2023-02-18T22:29:08.886Z,10.69
2023-02-18T22:31:36.637Z,10.68
2023-02-18T22:34:06.052Z,10.73
2023-02-18T22:36:34.674Z,10.82
2023-02-18T22:39:02.887Z,10.80
2023-02-18T22:41:32.461Z,10.75
2023-02-18T22:44:02.573Z,10.78
2023-02-18T22:46:32.177Z,10.75
2023-02-18T22:49:00.744Z,10.63
2023-02-18T22:51:31.429Z,10.84
2023-02-18T22:54:00.908Z,10.69
2023-02-18T22:56:30.093Z,10.70
2023-02-18T22:58:59.705Z,10.80
2023-02-18T23:01:29.541Z,10.73
2023-02-18T23:03:59.022Z,10.97
2023-02-18T23:06:26.690Z,10.87
2023-02-18T23:08:56.605Z,10.83
2023-02-18T23:11:25.111Z,10.74
2023-02-18T23:14:08.778Z,10.64
2023-02-18T23:16:56.669Z,10.89
2023-02-18T23:19:26.208Z,10.81
2023-02-18T23:21:54.347Z,10.82
2023-02-18T23:24:23.684Z,10.74
2023-02-18T23:26:51.859Z,10.59
2023-02-18T23:29:19.638Z,10.69
2023-02-18T23:31:47.457Z,10.73
2023-02-18T23:34:17.776Z,10.61
2023-02-18T23:36:47.275Z,10.61
2023-02-18T23:39:18.030Z,10.63
2023-02-18T23:41:48.654Z,10.71
2023-02-18T23:44:18.474Z,10.66
2023-02-18T23:46:46.646Z,10.46
2023-02-18T23:49:16.023Z,10.51
2023-02-18T23:51:44.149Z,10.61
2023-02-18T23:54:12.733Z,10.67
2023-02-18T23:56:40.736Z,10.56
2023-02-18T23:59:11.075Z,10.37
